Time;durP1;ratioP1;P1;durP2;ratioP2;P2;SDS_P1;SDS_P2;PMS_P1;PMS_P2;Temp;Humidity;BMP_temperature;BMP_pressure;BME280_temperature;BME280_humidity;BME280_pressure;Samples;Min_cycle;Max_cycle;Signal;HPM_P1;HPM_P2
2023/01/12 00:01:52;;;;;;;1.10;0.90;;;8.60;99.90;;;;;;5070522;28;20039;-74
2023/01/12 00:04:18;;;;;;;4.88;0.80;;;8.60;99.90;;;;;;5066336;28;20036;-74
2023/01/12 00:06:44;;;;;;;1.95;0.73;;;8.60;99.90;;;;;;5070719;28;20035;-74
2023/01/12 00:09:10;;;;;;;1.98;0.70;;;8.60;99.90;;;;;;5054795;28;20440;-73
2023/01/12 00:11:37;;;;;;;2.60;1.90;;;8.60;99.90;;;;;;5070761;28;20048;-74
2023/01/12 00:14:04;;;;;;;2.22;0.98;;;8.60;99.90;;;;;;5078283;28;20139;-74
2023/01/12 00:16:39;;;;;;;6.97;0.90;;;8.60;99.90;;;;;;5057884;28;20035;-74
2023/01/12 00:19:10;;;;;;;4.03;0.55;;;8.50;99.90;;;;;;5067294;28;20043;-74
2023/01/12 00:21:49;;;;;;;3.17;1.00;;;8.60;99.90;;;;;;5070465;28;21307;-73
2023/01/12 00:24:16;;;;;;;2.03;0.73;;;8.60;99.90;;;;;;5055442;28;20469;-74
2023/01/12 00:26:42;;;;;;;4.68;0.88;;;8.50;99.90;;;;;;5071556;28;20163;-74
2023/01/12 00:29:07;;;;;;;1.10;0.70;;;8.50;99.90;;;;;;5056489;28;20488;-74
2023/01/12 00:31:34;;;;;;;2.47;0.65;;;8.50;99.90;;;;;;5070459;28;20036;-74
2023/01/12 00:33:59;;;;;;;1.88;0.57;;;8.50;99.90;;;;;;5071054;28;20454;-74
2023/01/12 00:36:25;;;;;;;2.70;0.73;;;8.40;99.90;;;;;;5054372;28;20039;-74
2023/01/12 00:38:51;;;;;;;3.55;0.98;;;8.40;99.90;;;;;;5058239;28;20054;-74
2023/01/12 00:46:44;;;;;;;1.67;0.57;;;8.40;99.90;;;;;;5071987;28;20043;-73
2023/01/12 00:49:10;;;;;;;2.35;0.88;;;8.40;99.90;;;;;;5057017;28;20036;-74
2023/01/12 00:51:35;;;;;;;1.88;0.57;;;8.30;99.90;;;;;;5073488;28;20122;-74
2023/01/12 00:54:03;;;;;;;3.85;0.73;;;8.40;99.90;;;;;;5077878;28;20111;-74
2023/01/12 00:56:36;;;;;;;1.98;0.57;;;8.40;99.90;;;;;;5072536;28;20067;-74
2023/01/12 00:59:02;;;;;;;3.10;0.93;;;8.40;99.90;;;;;;5060522;28;20429;-74
2023/01/12 01:01:28;;;;;;;2.10;0.98;;;8.40;99.90;;;;;;5056798;28;20032;-74
2023/01/12 01:03:54;;;;;;;5.22;1.17;;;8.40;99.90;;;;;;5072939;28;20028;-74
2023/01/12 01:06:20;;;;;;;1.90;0.50;;;8.40;99.90;;;;;;5071083;28;20042;-74
2023/01/12 01:08:46;;;;;;;9.90;1.85;;;8.40;99.90;;;;;;5061224;28;20131;-74
2023/01/12 01:11:13;;;;;;;4.00;0.90;;;8.50;99.90;;;;;;5071649;28;20524;-73
2023/01/12 01:13:42;;;;;;;3.97;0.52;;;8.40;99.90;;;;;;5058863;28;20040;-74
2023/01/12 01:16:10;;;;;;;2.35;0.70;;;8.50;99.90;;;;;;5067931;28;20044;-74
2023/01/12 01:18:36;;;;;;;5.90;0.70;;;8.50;99.90;;;;;;5066401;28;20093;-74
2023/01/12 01:21:03;;;;;;;4.75;1.25;;;8.50;99.90;;;;;;5078154;28;20040;-74
2023/01/12 01:23:31;;;;;;;5.95;1.38;;;8.50;99.90;;;;;;5060798;28;20028;-74
2023/01/12 01:26:02;;;;;;;3.42;0.60;;;8.50;99.90;;;;;;5068489;28;20393;-73
2023/01/12 01:28:27;;;;;;;4.90;1.15;;;8.50;99.90;;;;;;5077439;28;20040;-74
2023/01/12 01:31:00;;;;;;;3.13;0.88;;;8.50;99.90;;;;;;5055369;28;20406;-74
2023/01/12 01:33:26;;;;;;;4.65;0.65;;;8.60;99.90;;;;;;5080122;28;20050;-73
2023/01/12 01:35:52;;;;;;;2.65;0.70;;;8.60;99.90;;;;;;5069777;28;20044;-74
2023/01/12 01:38:17;;;;;;;5.35;1.08;;;8.60;99.90;;;;;;5071528;28;20122;-74
2023/01/12 01:40:43;;;;;;;2.38;0.60;;;8.60;99.90;;;;;;5069752;28;20036;-74
2023/01/12 01:43:13;;;;;;;5.28;0.88;;;8.60;99.90;;;;;;5069270;28;20054;-74
2023/01/12 01:45:38;;;;;;;5.53;1.02;;;8.60;99.90;;;;;;5098029;27;20410;-73
2023/01/12 01:48:04;;;;;;;2.92;1.10;;;8.60;99.90;;;;;;5077167;28;20028;-74
2023/01/12 01:50:39;;;;;;;2.33;0.82;;;8.70;99.90;;;;;;5066899;28;20047;-74
2023/01/12 01:53:09;;;;;;;3.97;1.30;;;8.60;99.90;;;;;;5069777;28;21936;-74
2023/01/12 01:55:41;;;;;;;4.78;1.10;;;8.60;99.90;;;;;;5080195;28;20556;-73
2023/01/12 01:58:17;;;;;;;4.40;0.82;;;8.60;99.90;;;;;;5074036;28;20497;-73
2023/01/12 02:00:43;;;;;;;5.68;1.17;;;8.60;99.90;;;;;;5068409;28;20402;-74
2023/01/12 02:03:11;;;;;;;1.52;0.63;;;8.60;99.90;;;;;;5064149;28;20071;-73
2023/01/12 02:05:40;;;;;;;2.00;0.75;;;8.60;99.90;;;;;;5070733;28;20039;-73
2023/01/12 02:08:20;;;;;;;2.42;0.82;;;8.60;99.90;;;;;;5067059;28;20056;-73
2023/01/12 02:10:46;;;;;;;3.45;0.80;;;8.70;99.90;;;;;;5058368;28;20127;-74
2023/01/12 02:16:19;;;;;;;4.43;0.77;;;8.60;99.90;;;;;;5070418;28;20131;-74
2023/01/12 02:19:15;;;;;;;3.33;0.93;;;8.70;99.90;;;;;;5054953;28;20051;-74
2023/01/12 02:21:50;;;;;;;;;;;8.70;99.90;;;;;;5071054;28;20049;-74
2023/01/12 02:24:55;;;;;;;5.82;0.60;;;8.70;99.90;;;;;;5102616;28;19931;-74
2023/01/12 02:27:29;;;;;;;3.60;0.63;;;8.70;99.90;;;;;;5072480;28;20123;-74
2023/01/12 02:30:20;;;;;;;4.60;0.90;;;8.70;99.90;;;;;;5071602;28;20043;-74
2023/01/12 02:33:00;;;;;;;1.42;0.60;;;8.70;99.90;;;;;;5067620;28;20044;-74
2023/01/12 02:35:42;;;;;;;2.70;0.75;;;8.70;99.90;;;;;;5056727;28;20047;-74
2023/01/12 02:38:07;;;;;;;2.28;0.60;;;8.70;99.90;;;;;;5072656;28;20047;-74
2023/01/12 02:40:48;;;;;;;0.95;0.60;;;8.70;99.90;;;;;;5065004;28;20037;-74
2023/01/12 02:43:22;;;;;;;3.05;0.70;;;8.70;99.90;;;;;;5068894;28;20039;-74
2023/01/12 02:46:13;;;;;;;3.63;0.75;;;8.70;99.90;;;;;;5068958;28;20052;-74
2023/01/12 02:48:51;;;;;;;5.55;0.82;;;8.70;99.90;;;;;;5054748;28;20032;-74
2023/01/12 02:51:21;;;;;;;7.03;1.17;;;8.70;99.90;;;;;;5089071;28;20074;-74
2023/01/12 02:54:03;;;;;;;1.35;0.65;;;8.70;99.90;;;;;;5080236;28;20044;-73
2023/01/12 02:56:33;;;;;;;2.75;1.00;;;8.70;99.90;;;;;;5070746;28;20085;-73
2023/01/12 02:59:03;;;;;;;3.10;0.60;;;8.70;99.90;;;;;;5072802;28;20040;-74
2023/01/12 03:01:32;;;;;;;7.00;0.85;;;8.70;99.90;;;;;;5059003;28;20584;-74
2023/01/12 03:04:01;;;;;;;1.08;0.75;;;8.70;99.90;;;;;;5080303;28;20454;-74
2023/01/12 03:06:40;;;;;;;3.40;1.02;;;8.70;99.90;;;;;;5073972;28;20122;-74
2023/01/12 03:09:06;;;;;;;2.50;0.80;;;8.80;99.90;;;;;;5071707;28;20040;-74
2023/01/12 03:11:35;;;;;;;3.03;0.80;;;8.70;99.90;;;;;;5073631;28;20441;-74
2023/01/12 03:14:02;;;;;;;2.70;0.60;;;8.80;99.90;;;;;;5071755;28;20102;-74
2023/01/12 03:16:33;;;;;;;6.25;1.38;;;8.80;99.90;;;;;;5072144;28;20417;-74
2023/01/12 03:19:15;;;;;;;0.65;0.55;;;8.70;99.90;;;;;;5069649;28;20041;-74
2023/01/12 03:21:57;;;;;;;2.67;0.77;;;8.70;99.90;;;;;;5063183;28;20052;-74
2023/01/12 03:24:57;;;;;;;2.15;1.05;;;8.70;99.90;;;;;;5052354;28;20068;-74
2023/01/12 03:27:35;;;;;;;3.80;0.75;;;8.70;99.90;;;;;;5041473;28;20128;-74
2023/01/12 03:30:13;;;;;;;6.63;1.00;;;8.70;99.90;;;;;;5073849;28;20055;-74
2023/01/12 03:32:39;;;;;;;2.97;1.10;;;8.70;99.90;;;;;;5066926;28;20051;-74
2023/01/12 03:35:07;;;;;;;8.35;1.85;;;8.70;99.90;;;;;;5076000;28;20398;-74
2023/01/12 03:37:42;;;;;;;8.95;1.25;;;8.70;99.90;;;;;;5074862;28;20045;-74
2023/01/12 03:40:21;;;;;;;3.17;1.67;;;8.70;99.90;;;;;;5072705;28;20131;-74
2023/01/12 03:42:57;;;;;;;1.30;0.60;;;8.80;99.90;;;;;;5070626;28;20157;-74
2023/01/12 03:45:38;;;;;;;0.65;0.50;;;8.80;99.90;;;;;;5076379;28;20048;-74
2023/01/12 03:48:28;;;;;;;3.88;0.88;;;8.80;99.90;;;;;;5085630;27;20071;-74
2023/01/12 03:51:01;;;;;;;1.63;0.70;;;8.80;99.90;;;;;;5068071;28;20048;-74
2023/01/12 03:53:28;;;;;;;9.63;2.00;;;8.80;99.90;;;;;;5069476;28;20529;-74
2023/01/12 03:55:58;;;;;;;1.30;0.40;;;8.80;99.90;;;;;;5070937;28;20530;-74
2023/01/12 03:58:24;;;;;;;1.27;0.80;;;8.80;99.90;;;;;;5073778;28;20040;-74
2023/01/12 04:00:50;;;;;;;2.17;0.70;;;8.80;99.90;;;;;;5072017;28;20032;-74
2023/01/12 04:03:16;;;;;;;8.48;0.90;;;8.80;99.90;;;;;;5069190;28;20063;-74
2023/01/12 04:05:43;;;;;;;2.22;0.52;;;8.80;99.90;;;;;;5068009;28;20044;-74
2023/01/12 04:08:11;;;;;;;2.38;0.70;;;8.80;99.90;;;;;;5069454;28;20142;-74
2023/01/12 04:10:37;;;;;;;5.22;0.82;;;8.80;99.90;;;;;;5069776;28;20071;-74
2023/01/12 04:13:03;;;;;;;3.90;0.50;;;8.80;99.90;;;;;;5070381;28;20080;-74
2023/01/12 04:15:28;;;;;;;3.30;0.77;;;8.80;99.90;;;;;;5069915;28;20036;-74
2023/01/12 04:17:54;;;;;;;2.70;1.10;;;8.80;99.90;;;;;;5059282;28;20056;-74
2023/01/12 04:20:20;;;;;;;4.70;1.02;;;8.80;99.90;;;;;;5076343;28;20043;-74
2023/01/12 04:22:45;;;;;;;1.42;0.80;;;8.80;99.90;;;;;;5071357;28;20043;-74
2023/01/12 04:25:14;;;;;;;2.28;0.90;;;8.80;99.90;;;;;;5080390;28;20046;-74
2023/01/12 04:27:44;;;;;;;1.52;0.77;;;8.80;99.90;;;;;;5076645;28;20065;-73
2023/01/12 04:30:10;;;;;;;5.07;0.85;;;8.80;99.90;;;;;;5078007;28;20113;-73
2023/01/12 04:32:36;;;;;;;1.23;0.60;;;8.80;99.90;;;;;;5063861;28;20037;-74
2023/01/12 04:35:03;;;;;;;2.20;0.60;;;8.80;99.90;;;;;;5068025;28;20033;-74
2023/01/12 04:37:33;;;;;;;2.53;0.90;;;8.80;99.90;;;;;;5071097;28;20067;-74
2023/01/12 04:39:59;;;;;;;3.25;0.60;;;8.80;99.90;;;;;;5073509;28;20415;-74
2023/01/12 04:43:10;;;;;;;7.25;1.75;;;8.80;99.90;;;;;;5056740;28;20103;-74
2023/01/12 04:45:11;;;;;;;;;;;8.80;99.90;;;;;;5081744;28;20036;-74
2023/01/12 04:47:36;;;;;;;2.97;0.60;;;8.80;99.90;;;;;;5104436;27;19919;-74
2023/01/12 04:50:02;;;;;;;1.00;0.60;;;8.80;99.90;;;;;;5052622;28;20036;-74
2023/01/12 04:52:28;;;;;;;2.42;0.38;;;8.80;99.90;;;;;;5073254;28;20048;-74
2023/01/12 04:54:54;;;;;;;2.90;0.68;;;8.80;99.90;;;;;;5071897;28;20074;-74
2023/01/12 04:57:19;;;;;;;0.82;0.50;;;8.80;99.90;;;;;;5068927;28;20063;-74
2023/01/12 04:59:45;;;;;;;1.38;0.60;;;8.80;99.90;;;;;;5071267;28;20516;-74
2023/01/12 05:02:11;;;;;;;1.20;0.50;;;8.80;99.90;;;;;;5071264;28;20115;-74
2023/01/12 05:04:36;;;;;;;2.00;0.82;;;8.70;99.90;;;;;;5049753;28;20043;-74
2023/01/12 05:07:02;;;;;;;2.33;0.63;;;8.70;99.90;;;;;;5068515;28;20163;-74
2023/01/12 05:12:11;;;;;;;0.63;0.40;;;8.70;99.90;;;;;;5065582;28;20037;-74
2023/01/12 05:14:37;;;;;;;1.55;0.98;;;8.70;99.90;;;;;;5075039;28;20043;-74
2023/01/12 05:17:03;;;;;;;0.47;0.35;;;8.70;99.90;;;;;;5069181;28;20028;-75
2023/01/12 05:19:29;;;;;;;0.20;0.20;;;8.60;99.90;;;;;;5069026;28;20037;-75
2023/01/12 05:21:55;;;;;;;0.93;0.35;;;8.70;99.90;;;;;;5072504;28;20898;-75
2023/01/12 05:24:20;;;;;;;1.30;0.80;;;8.70;99.90;;;;;;5073752;28;20118;-75
2023/01/12 05:26:46;;;;;;;0.98;0.50;;;8.60;99.90;;;;;;5073593;28;20064;-75
2023/01/12 05:29:12;;;;;;;2.90;1.27;;;8.60;99.90;;;;;;5072232;28;20477;-75
2023/01/12 05:31:37;;;;;;;0.40;0.22;;;8.60;99.90;;;;;;5058871;28;20391;-75
2023/01/12 05:34:03;;;;;;;0.10;0.10;;;8.60;99.90;;;;;;5054823;28;20057;-75
2023/01/12 05:36:29;;;;;;;1.58;0.30;;;8.60;99.90;;;;;;5071450;28;20036;-75
2023/01/12 05:38:54;;;;;;;0.60;0.30;;;8.60;99.90;;;;;;5075579;28;20440;-75
2023/01/12 05:41:21;;;;;;;1.17;0.60;;;8.60;99.90;;;;;;5066698;28;20040;-75
2023/01/12 05:43:50;;;;;;;0.85;0.38;;;8.60;99.90;;;;;;5074578;28;20032;-75
2023/01/12 05:46:20;;;;;;;0.98;0.40;;;8.60;99.90;;;;;;5053127;28;20040;-75
2023/01/12 05:48:46;;;;;;;0.55;0.20;;;8.50;99.90;;;;;;5070496;28;20036;-75
2023/01/12 05:51:13;;;;;;;0.88;0.45;;;8.50;99.90;;;;;;5054305;28;20052;-75
2023/01/12 05:53:40;;;;;;;1.35;0.20;;;8.50;99.90;;;;;;5075547;28;20079;-75
2023/01/12 05:56:18;;;;;;;0.38;0.28;;;8.50;99.90;;;;;;5057464;28;20048;-75
2023/01/12 05:58:55;;;;;;;0.22;0.20;;;8.50;99.90;;;;;;5069779;28;20125;-75
2023/01/12 06:01:21;;;;;;;2.05;1.00;;;8.50;99.90;;;;;;5068551;28;20067;-75
2023/01/12 06:03:52;;;;;;;0.68;0.30;;;8.50;99.90;;;;;;5069011;28;20041;-76
2023/01/12 06:06:18;;;;;;;0.52;0.20;;;8.50;99.90;;;;;;5052281;28;20090;-76
2023/01/12 06:08:45;;;;;;;1.60;0.30;;;8.50;99.90;;;;;;5075261;28;20054;-75
2023/01/12 06:13:55;;;;;;;1.05;0.40;;;8.60;99.90;;;;;;5071922;28;20071;-75
2023/01/12 06:13:57;;;;;;;0.90;0.20;;;8.60;99.90;;;;;;5072967;28;20041;-75
2023/01/12 06:16:23;;;;;;;0.98;0.38;;;8.60;99.90;;;;;;5069223;28;20123;-76
2023/01/12 06:18:49;;;;;;;0.20;0.20;;;8.60;99.90;;;;;;5069571;28;20405;-75
2023/01/12 06:21:15;;;;;;;1.85;0.30;;;8.60;99.90;;;;;;5060367;28;20037;-75
2023/01/12 06:23:40;;;;;;;0.52;0.40;;;8.60;99.90;;;;;;5066544;28;20037;-75
2023/01/12 06:26:07;;;;;;;1.33;0.28;;;8.60;99.90;;;;;;5067993;28;20402;-76
2023/01/12 06:28:35;;;;;;;0.28;0.13;;;8.70;99.90;;;;;;5057362;28;20162;-76
2023/01/12 06:31:04;;;;;;;0.93;0.20;;;8.70;99.90;;;;;;5076252;28;20127;-76
2023/01/12 06:33:30;;;;;;;1.77;0.20;;;8.70;99.90;;;;;;5075762;28;20047;-76
2023/01/12 06:35:56;;;;;;;0.45;0.20;;;8.70;99.90;;;;;;5081799;28;20047;-76
2023/01/12 06:38:24;;;;;;;0.30;0.20;;;8.70;99.90;;;;;;5069333;28;20047;-76
2023/01/12 06:40:50;;;;;;;0.10;0.10;;;8.70;99.90;;;;;;5064669;28;20033;-76
2023/01/12 06:43:16;;;;;;;1.73;0.63;;;8.70;99.90;;;;;;5110058;27;20024;-76
2023/01/12 06:45:42;;;;;;;0.45;0.20;;;8.70;99.90;;;;;;5076147;28;20530;-76
2023/01/12 06:48:08;;;;;;;0.32;0.20;;;8.70;99.90;;;;;;5073478;28;20040;-76
2023/01/12 06:50:34;;;;;;;0.63;0.30;;;8.80;99.90;;;;;;5074620;28;20048;-76
2023/01/12 06:53:01;;;;;;;0.08;0.08;;;8.80;99.90;;;;;;5073414;28;20059;-76
2023/01/12 06:55:27;;;;;;;0.57;0.25;;;8.80;99.90;;;;;;5058575;28;20043;-76
2023/01/12 06:57:53;;;;;;;0.47;0.28;;;8.90;99.90;;;;;;5072052;28;20033;-76
2023/01/12 07:00:18;;;;;;;0.47;0.20;;;8.90;99.90;;;;;;5082836;28;20041;-76
2023/01/12 07:02:47;;;;;;;0.10;0.10;;;8.90;99.90;;;;;;5054008;28;20040;-76
2023/01/12 07:05:13;;;;;;;0.60;0.25;;;9.00;99.90;;;;;;5075616;28;20040;-76
2023/01/12 07:07:38;;;;;;;0.25;0.20;;;9.00;99.90;;;;;;5076121;28;20521;-76
2023/01/12 07:10:05;;;;;;;0.25;0.20;;;9.00;99.90;;;;;;5069997;28;20449;-76
2023/01/12 07:12:31;;;;;;;0.30;0.20;;;9.00;99.90;;;;;;5072836;28;20048;-76
2023/01/12 07:14:58;;;;;;;0.40;0.20;;;9.00;99.90;;;;;;5057463;28;20055;-76
2023/01/12 07:17:24;;;;;;;0.20;0.20;;;9.10;99.90;;;;;;5070059;28;20081;-77
2023/01/12 07:19:49;;;;;;;0.95;0.20;;;9.10;99.90;;;;;;5074795;28;20045;-76
2023/01/12 07:22:15;;;;;;;0.45;0.20;;;9.10;99.90;;;;;;5069256;28;20030;-76
2023/01/12 07:24:40;;;;;;;0.32;0.20;;;9.00;99.90;;;;;;5073299;28;20037;-77
2023/01/12 07:27:06;;;;;;;0.13;0.10;;;9.10;99.90;;;;;;5075083;28;20042;-76
2023/01/12 07:29:32;;;;;;;0.32;0.20;;;9.10;99.90;;;;;;5071850;28;20099;-76
2023/01/12 07:31:58;;;;;;;0.30;0.20;;;9.20;99.90;;;;;;5075068;28;20028;-76
2023/01/12 07:34:23;;;;;;;0.63;0.28;;;9.20;99.90;;;;;;5072292;28;20047;-76
2023/01/12 07:36:50;;;;;;;0.52;0.20;;;9.20;99.90;;;;;;5068213;28;20037;-76
2023/01/12 07:39:16;;;;;;;0.77;0.30;;;9.20;99.90;;;;;;5077594;28;20497;-77
2023/01/12 07:44:26;;;;;;;0.80;0.55;;;9.20;99.90;;;;;;5076359;28;20037;-77
2023/01/12 07:46:52;;;;;;;1.75;0.30;;;9.20;99.90;;;;;;5074928;28;20029;-77
2023/01/12 07:49:18;;;;;;;0.50;0.20;;;9.20;99.90;;;;;;5070174;28;20056;-77
2023/01/12 07:51:44;;;;;;;0.73;0.40;;;9.30;99.90;;;;;;5109501;27;20035;-78
2023/01/12 07:54:09;;;;;;;1.20;0.50;;;9.30;99.90;;;;;;5059057;28;20067;-74
2023/01/12 07:56:35;;;;;;;1.48;0.55;;;9.30;99.90;;;;;;5070471;28;20049;-77
2023/01/12 07:59:01;;;;;;;0.43;0.30;;;9.30;99.90;;;;;;5058817;28;20028;-77
2023/01/12 08:01:27;;;;;;;1.13;0.65;;;9.30;99.90;;;;;;5049404;28;20036;-75
2023/01/12 08:03:52;;;;;;;0.93;0.30;;;9.30;99.90;;;;;;5059687;28;20037;-77
2023/01/12 08:06:18;;;;;;;0.60;0.30;;;9.30;99.90;;;;;;5057510;28;20520;-78
2023/01/12 08:08:44;;;;;;;1.00;0.50;;;9.40;99.90;;;;;;5070642;28;20109;-77
2023/01/12 08:11:10;;;;;;;1.15;0.50;;;9.40;99.90;;;;;;5065796;28;20040;-77
2023/01/12 08:13:37;;;;;;;1.10;0.63;;;9.40;99.90;;;;;;5056053;28;20072;-76
2023/01/12 08:16:13;;;;;;;1.40;0.57;;;9.40;99.90;;;;;;5057627;28;20093;-77
2023/01/12 08:18:42;;;;;;;;;;;9.40;99.90;;;;;;5067684;28;20040;-76
2023/01/12 08:21:13;;;;;;;1.40;0.57;;;9.50;99.90;;;;;;5101794;27;20340;-77
2023/01/12 08:23:45;;;;;;;0.80;0.45;;;9.50;99.90;;;;;;5064712;28;20106;-77
2023/01/12 08:26:22;;;;;;;1.50;0.55;;;9.50;99.90;;;;;;5059616;28;20060;-77
2023/01/12 08:28:55;;;;;;;1.52;0.52;;;9.60;99.90;;;;;;5066927;28;20507;-77
2023/01/12 08:31:23;;;;;;;2.90;0.95;;;9.50;99.90;;;;;;5098242;27;20051;-76
2023/01/12 08:33:50;;;;;;;2.47;0.68;;;9.60;99.90;;;;;;5059728;28;20098;-76
2023/01/12 08:36:17;;;;;;;3.90;1.08;;;9.60;99.90;;;;;;5071611;28;20124;-76
2023/01/12 08:38:43;;;;;;;7.47;0.68;;;9.70;99.90;;;;;;5076398;28;20123;-76
2023/01/12 08:44:02;;;;;;;4.35;1.73;;;9.70;99.90;;;;;;5066519;28;20048;-76
2023/01/12 08:46:32;;;;;;;3.08;0.47;;;9.80;99.90;;;;;;5068894;28;20527;-76
2023/01/12 08:48:58;;;;;;;7.60;1.23;;;9.90;99.90;;;;;;5066667;28;20054;-76
2023/01/12 08:51:23;;;;;;;4.65;0.75;;;9.90;99.90;;;;;;5087866;28;20477;-76
2023/01/12 08:53:49;;;;;;;3.50;0.88;;;10.00;99.90;;;;;;5087673;28;20079;-76
2023/01/12 08:56:14;;;;;;;4.40;0.63;;;10.00;99.90;;;;;;5067444;28;20074;-76
2023/01/12 08:58:41;;;;;;;5.68;0.40;;;10.00;99.90;;;;;;5068081;28;20051;-76
2023/01/12 09:01:09;;;;;;;4.13;1.17;;;10.10;99.90;;;;;;5067525;28;20629;-76
2023/01/12 09:03:35;;;;;;;6.95;1.63;;;10.20;99.90;;;;;;5085053;28;20383;-76
2023/01/12 09:06:19;;;;;;;4.97;0.85;;;10.10;99.90;;;;;;5072084;28;20041;-76
2023/01/12 09:08:46;;;;;;;3.95;1.30;;;10.10;99.90;;;;;;5051564;28;20093;-76
2023/01/12 09:11:13;;;;;;;5.97;1.25;;;10.20;99.90;;;;;;5051898;28;20406;-77
2023/01/12 09:13:39;;;;;;;4.55;1.38;;;10.20;99.90;;;;;;5067286;28;20106;-76
2023/01/12 09:16:07;;;;;;;4.95;0.70;;;10.30;99.90;;;;;;5050874;28;20483;-76
2023/01/12 09:18:33;;;;;;;3.95;0.93;;;10.20;99.90;;;;;;5051565;28;20536;-76
2023/01/12 09:21:01;;;;;;;3.08;0.73;;;10.20;99.90;;;;;;5051226;28;20040;-76
2023/01/12 09:23:26;;;;;;;7.22;1.00;;;10.30;99.90;;;;;;5057679;28;20032;-76
2023/01/12 09:25:52;;;;;;;4.65;0.68;;;10.30;99.90;;;;;;5071285;28;20036;-76
2023/01/12 09:28:17;;;;;;;3.78;1.00;;;10.30;99.90;;;;;;5062550;28;20336;-76
2023/01/12 09:30:43;;;;;;;3.88;0.95;;;10.30;99.90;;;;;;5069001;28;20044;-76
2023/01/12 09:33:08;;;;;;;5.80;1.30;;;10.30;99.90;;;;;;5084615;28;20044;-76
2023/01/12 09:35:34;;;;;;;4.70;0.60;;;10.30;99.90;;;;;;5067616;28;20044;-76
2023/01/12 09:38:00;;;;;;;3.70;0.90;;;10.40;99.90;;;;;;5068195;28;20044;-76
2023/01/12 09:40:25;;;;;;;6.43;1.17;;;10.40;99.90;;;;;;5051499;28;20032;-76
2023/01/12 09:48:22;;;;;;;3.30;0.60;;;10.40;99.90;;;;;;5079611;28;20036;-76
2023/01/12 09:51:10;;;;;;;1.58;0.65;;;10.40;99.90;;;;;;5051634;28;20044;-76
2023/01/12 09:53:40;;;;;;;1.45;0.30;;;10.50;99.90;;;;;;5062033;28;20105;-75
2023/01/12 09:56:29;;;;;;;1.60;0.73;;;10.40;99.90;;;;;;5077227;28;20089;-77
2023/01/12 09:59:24;;;;;;;2.25;0.40;;;10.50;99.90;;;;;;5051547;28;20494;-76
2023/01/12 10:01:51;;;;;;;9.80;1.35;;;10.60;99.90;;;;;;5068635;28;20122;-76
2023/01/12 10:04:17;;;;;;;6.03;0.70;;;10.60;99.90;;;;;;5068409;28;20036;-76
2023/01/12 10:06:43;;;;;;;5.32;0.77;;;10.60;99.90;;;;;;5081157;28;20535;-76
2023/01/12 10:09:14;;;;;;;5.05;1.05;;;10.60;99.90;;;;;;5082179;28;20040;-76
2023/01/12 10:12:05;;;;;;;2.88;0.90;;;10.60;99.90;;;;;;5069558;28;20043;-75
2023/01/12 10:14:51;;;;;;;5.32;0.93;;;10.50;99.90;;;;;;5084229;28;20078;-76
2023/01/12 10:17:36;;;;;;;4.07;0.73;;;10.60;99.90;;;;;;5065269;28;20032;-75
2023/01/12 10:20:26;;;;;;;2.10;0.63;;;10.60;99.90;;;;;;5079045;28;20174;-75
2023/01/12 10:23:01;;;;;;;2.80;1.00;;;10.60;99.90;;;;;;5073012;28;20515;-75
2023/01/12 10:25:39;;;;;;;6.68;0.90;;;10.60;99.90;;;;;;5073569;28;20668;-75
2023/01/12 10:28:29;;;;;;;6.95;0.88;;;10.60;99.90;;;;;;5079344;28;20819;-76
2023/01/12 10:30:56;;;;;;;2.65;1.00;;;10.70;99.90;;;;;;5069168;28;20044;-75
2023/01/12 10:33:26;;;;;;;8.65;1.63;;;10.70;99.90;;;;;;5053503;28;20035;-76
2023/01/12 10:36:07;;;;;;;3.92;0.82;;;10.70;99.90;;;;;;5080585;28;20063;-77
2023/01/12 10:39:02;;;;;;;5.90;0.98;;;10.80;99.90;;;;;;5072990;28;20049;-76
2023/01/12 10:41:36;;;;;;;2.10;0.77;;;10.70;99.90;;;;;;5062356;28;20048;-76
2023/01/12 10:44:02;;;;;;;1.85;0.70;;;10.80;99.90;;;;;;5061977;28;20089;-78
2023/01/12 10:46:31;;;;;;;2.88;0.60;;;10.90;99.90;;;;;;5075823;28;20036;-78
2023/01/12 10:49:21;;;;;;;6.55;1.15;;;10.90;99.90;;;;;;5058149;28;20047;-86
2023/01/12 10:51:54;;;;;;;5.50;0.68;;;10.90;99.90;;;;;;5074944;28;20116;-75
2023/01/12 10:54:30;;;;;;;2.40;1.20;;;10.90;99.90;;;;;;5060939;28;20478;-75
2023/01/12 10:57:19;;;;;;;3.45;1.05;;;10.90;99.90;;;;;;5073573;28;20485;-76
2023/01/12 11:00:01;;;;;;;2.85;0.57;;;10.90;99.90;;;;;;5080240;28;20047;-75
2023/01/12 11:02:43;;;;;;;1.02;0.30;;;11.00;99.90;;;;;;5077920;28;20033;-75
2023/01/12 11:05:29;;;;;;;4.03;0.75;;;11.00;99.90;;;;;;5087760;27;20056;-75
2023/01/12 11:07:55;;;;;;;1.50;0.70;;;10.90;99.90;;;;;;5072326;28;20520;-75
2023/01/12 11:10:28;;;;;;;3.75;0.75;;;10.90;99.90;;;;;;5069994;28;20159;-75
2023/01/12 11:13:02;;;;;;;8.15;1.05;;;10.90;99.90;;;;;;5079787;28;20028;-76
2023/01/12 11:15:29;;;;;;;4.72;0.73;;;10.90;99.90;;;;;;5066261;28;20071;-76
2023/01/12 11:18:23;;;;;;;4.85;1.25;;;10.90;99.90;;;;;;5062563;28;20036;-76
2023/01/12 11:20:54;;;;;;;2.22;0.70;;;11.00;99.90;;;;;;5068716;28;20492;-76
2023/01/12 11:23:26;;;;;;;6.05;0.93;;;11.00;99.90;;;;;;5067783;28;20509;-76
2023/01/12 11:25:52;;;;;;;2.30;0.90;;;11.00;99.90;;;;;;5044563;28;20058;-77
2023/01/12 11:28:28;;;;;;;4.30;1.08;;;11.00;99.90;;;;;;5056084;28;20519;-76
2023/01/12 11:30:53;;;;;;;5.57;0.80;;;11.00;99.90;;;;;;5061392;28;20036;-76
2023/01/12 11:33:31;;;;;;;3.65;0.73;;;11.00;99.90;;;;;;5057970;28;20183;-76
2023/01/12 11:36:15;;;;;;;6.85;0.95;;;11.00;99.90;;;;;;5062273;28;20044;-76
2023/01/12 11:38:48;;;;;;;3.63;0.65;;;11.10;99.90;;;;;;5096265;27;20127;-76
2023/01/12 11:41:25;;;;;;;2.05;0.90;;;11.10;99.90;;;;;;5067164;28;20041;-76
2023/01/12 11:44:10;;;;;;;4.07;0.82;;;11.10;99.90;;;;;;5072964;28;20443;-76
2023/01/12 11:46:52;;;;;;;2.20;0.90;;;11.20;99.90;;;;;;5064976;28;20485;-75
2023/01/12 11:49:32;;;;;;;5.95;1.15;;;11.20;99.90;;;;;;5067797;28;20157;-76
2023/01/12 11:51:59;;;;;;;3.25;0.60;;;11.20;99.90;;;;;;5064426;28;20044;-76
2023/01/12 11:54:27;;;;;;;2.38;0.60;;;11.20;99.90;;;;;;5067480;28;20067;-76
2023/01/12 11:57:07;;;;;;;2.65;1.10;;;11.20;99.90;;;;;;5058173;28;20562;-76
2023/01/12 12:00:10;;;;;;;2.05;0.60;;;11.20;99.90;;;;;;5056514;28;20108;-76
2023/01/12 12:03:09;;;;;;;3.08;0.60;;;11.20;99.90;;;;;;5077366;28;20517;-75
2023/01/12 12:06:02;;;;;;;2.10;0.73;;;11.20;99.90;;;;;;5056062;28;20041;-76
2023/01/12 12:09:00;;;;;;;6.13;0.88;;;11.30;99.90;;;;;;5076810;28;20052;-76
2023/01/12 12:11:56;;;;;;;3.20;0.57;;;11.20;99.90;;;;;;5060528;28;20106;-76
2023/01/12 12:14:48;;;;;;;8.17;1.63;;;11.20;99.90;;;;;;5069620;28;20054;-76
2023/01/12 12:17:21;;;;;;;4.20;0.73;;;11.20;99.90;;;;;;5072918;28;20063;-76
2023/01/12 12:20:16;;;;;;;3.78;0.77;;;11.20;99.90;;;;;;5060448;28;20040;-76
2023/01/12 12:22:59;;;;;;;6.00;0.65;;;11.20;99.90;;;;;;5046233;28;20044;-73
2023/01/12 12:25:57;;;;;;;7.55;1.13;;;11.20;99.90;;;;;;5062463;28;20123;-76
2023/01/12 12:28:22;;;;;;;7.70;0.70;;;11.20;99.90;;;;;;5053260;28;20123;-76
2023/01/12 12:30:58;;;;;;;6.15;0.95;;;11.20;99.90;;;;;;5054185;28;20127;-77
2023/01/12 12:33:26;;;;;;;2.78;0.70;;;11.20;99.90;;;;;;5068962;28;20032;-76
2023/01/12 12:36:06;;;;;;;1.55;0.52;;;11.20;99.90;;;;;;5049939;28;20745;-76
2023/01/12 12:39:03;;;;;;;3.28;1.05;;;11.20;99.90;;;;;;5053824;28;20036;-76
2023/01/12 12:47:40;;;;;;;4.57;0.85;;;11.20;99.90;;;;;;5070919;28;20040;-75
2023/01/12 12:50:16;;;;;;;5.50;1.00;;;11.10;99.90;;;;;;5065562;28;20411;-76
2023/01/12 12:52:44;;;;;;;5.00;1.73;;;11.10;99.90;;;;;;5066448;28;20298;-76
2023/01/12 12:55:11;;;;;;;4.05;0.90;;;11.10;99.90;;;;;;5054825;28;20524;-76
2023/01/12 12:57:57;;;;;;;5.63;1.05;;;11.10;99.90;;;;;;5095579;27;20445;-76
2023/01/12 13:00:30;;;;;;;2.67;0.85;;;11.00;99.90;;;;;;5069488;28;20068;-76
2023/01/12 13:02:57;;;;;;;10.75;1.52;;;11.00;99.90;;;;;;5066281;28;20044;-77
2023/01/12 13:05:47;;;;;;;3.65;0.50;;;11.00;99.90;;;;;;5066304;28;20040;-76
2023/01/12 13:08:25;;;;;;;6.75;0.93;;;10.90;99.90;;;;;;5079052;28;20044;-76
2023/01/12 13:10:57;;;;;;;3.47;1.40;;;10.90;99.90;;;;;;5067854;28;20131;-76
2023/01/12 13:13:31;;;;;;;3.92;1.13;;;10.90;99.90;;;;;;5051608;28;20044;-76
2023/01/12 13:16:19;;;;;;;4.03;0.73;;;10.90;99.90;;;;;;5067670;28;20052;-76
2023/01/12 13:18:47;;;;;;;2.53;0.65;;;10.90;99.90;;;;;;5072216;28;20040;-76
2023/01/12 13:21:55;;;;;;;4.68;0.80;;;11.00;99.90;;;;;;5068588;28;20040;-76
2023/01/12 13:24:38;;;;;;;4.45;0.82;;;11.00;99.90;;;;;;5064603;28;20040;-76
2023/01/12 13:27:42;;;;;;;2.30;1.00;;;11.00;99.90;;;;;;5088325;28;20032;-76
2023/01/12 13:30:47;;;;;;;5.57;0.80;;;11.10;99.90;;;;;;5088121;28;20143;-76
2023/01/12 13:33:15;;;;;;;6.32;1.35;;;11.10;99.90;;;;;;5081567;28;20048;-76
2023/01/12 13:35:45;;;;;;;6.20;1.58;;;11.00;99.90;;;;;;5069704;28;20040;-76
2023/01/12 13:38:20;;;;;;;3.13;0.80;;;11.00;99.90;;;;;;5074082;28;20486;-76
2023/01/12 13:40:46;;;;;;;3.95;1.00;;;11.10;99.90;;;;;;5080914;28;20608;-76
2023/01/12 13:43:24;;;;;;;8.32;1.48;;;11.10;99.90;;;;;;5068167;28;20037;-76
2023/01/12 13:46:05;;;;;;;2.45;0.70;;;11.10;99.90;;;;;;5067493;28;20041;-76
2023/01/12 13:48:34;;;;;;;2.95;0.90;;;11.10;99.90;;;;;;5051309;28;20044;-76